Time;durP1;ratioP1;P1;durP2;ratioP2;P2;SDS_P1;SDS_P2;PMS_P1;PMS_P2;Temp;Humidity;BMP_temperature;BMP_pressure;BME280_temperature;BME280_humidity;BME280_pressure;Samples;Min_cycle;Max_cycle;Signal;HPM_P1;HPM_P2
2021/03/29 00:00:33;;;;;;;;;;;;;;;6.88;78.92;100086.28;1769215;80;20171;-65
2021/03/29 00:03:01;;;;;;;;;;;;;;;6.92;78.60;100085.58;1762862;80;20151;-65
2021/03/29 00:05:31;;;;;;;;;;;;;;;6.92;78.16;100090.84;1770974;79;20150;-65
2021/03/29 00:08:02;;;;;;;;;;;;;;;6.93;77.98;100088.59;1783702;80;20230;-65
2021/03/29 00:10:32;;;;;;;;;;;;;;;6.92;77.69;100082.50;1775268;80;20136;-66
2021/03/29 00:12:59;;;;;;;;;;;;;;;6.91;77.53;100088.70;1772509;80;20135;-67
2021/03/29 00:15:29;;;;;;;;;;;;;;;6.88;77.54;100084.14;1776648;80;20143;-65
2021/03/29 00:17:58;;;;;;;;;;;;;;;6.85;77.43;100090.97;1781103;80;20221;-66
2021/03/29 00:20:28;;;;;;;;;;;;;;;6.82;77.36;100088.55;1771033;80;20265;-66
2021/03/29 00:22:59;;;;;;;;;;;;;;;6.77;77.37;100084.48;1797010;79;20185;-66
2021/03/29 00:25:27;;;;;;;;;;;;;;;6.75;77.51;100100.84;1812400;78;20153;-65
2021/03/29 00:27:56;;;;;;;;;;;;;;;6.73;77.48;100098.81;1778647;80;20155;-65
2021/03/29 00:30:29;;;;;;;;;;;;;;;6.73;77.39;100101.44;1775557;80;20161;-66
2021/03/29 00:32:58;;;;;;;;;;;;;;;6.71;77.45;100098.05;1790172;79;20121;-66
2021/03/29 00:35:26;;;;;;;;;;;;;;;6.76;77.27;100099.88;1752665;80;20151;-66
2021/03/29 00:37:56;;;;;;;;;;;;;;;6.80;77.40;100103.12;1792296;79;20156;-66
2021/03/29 00:40:24;;;;;;;;;;;;;;;6.80;77.35;100102.63;1777100;80;20140;-66
2021/03/29 00:42:55;;;;;;;;;;;;;;;6.77;77.20;100108.14;1776477;79;20146;-66
2021/03/29 00:45:24;;;;;;;;;;;;;;;6.76;77.23;100102.50;1767998;79;20247;-66
2021/03/29 00:47:52;;;;;;;;;;;;;;;6.77;77.17;100105.51;1772094;80;20565;-66
2021/03/29 00:50:30;;;;;;;;;;;;;;;6.79;77.07;100111.97;1792314;79;20220;-66
2021/03/29 00:52:58;;;;;;;;;;;;;;;6.77;76.91;100112.08;1806801;78;20125;-66
2021/03/29 00:55:27;;;;;;;;;;;;;;;6.74;76.97;100114.92;1767594;80;20418;-66
2021/03/29 00:57:54;;;;;;;;;;;;;;;6.70;76.99;100110.85;1770604;80;20234;-66
2021/03/29 01:00:27;;;;;;;;;;;;;;;6.67;77.05;100112.38;1792414;79;20502;-66
2021/03/29 01:02:55;;;;;;;;;;;;;;;6.67;76.99;100125.52;1772041;80;20250;-66
2021/03/29 01:05:23;;;;;;;;;;;;;;;6.65;76.88;100119.54;1794516;79;20164;-66
2021/03/29 01:07:53;;;;;;;;;;;;;;;6.61;77.08;100127.30;1770029;80;20156;-66
2021/03/29 01:10:21;;;;;;;;;;;;;;;6.57;77.32;100128.47;1795878;79;20416;-66
2021/03/29 01:12:49;;;;;;;;;;;;;;;6.54;77.37;100129.52;1762351;78;20231;-66
2021/03/29 01:15:18;;;;;;;;;;;;;;;6.53;77.46;100132.27;1766435;80;20127;-66
2021/03/29 01:17:46;;;;;;;;;;;;;;;6.54;77.37;100122.94;1773177;80;20254;-66
2021/03/29 01:20:21;;;;;;;;;;;;;;;6.58;77.46;100124.87;1761213;80;20238;-66
2021/03/29 01:22:50;;;;;;;;;;;;;;;6.60;77.48;100124.28;1803928;79;20134;-66
2021/03/29 01:25:37;;;;;;;;;;;;;;;6.59;77.46;100123.94;1789306;79;20457;-66
2021/03/29 01:28:07;;;;;;;;;;;;;;;6.59;77.47;100128.71;1783873;79;20218;-66
2021/03/29 01:30:36;;;;;;;;;;;;;;;6.59;77.48;100129.20;1783984;79;20410;-66
2021/03/29 01:33:06;;;;;;;;;;;;;;;6.56;77.26;100128.09;1784075;79;20233;-66
2021/03/29 01:35:35;;;;;;;;;;;;;;;6.52;77.28;100140.61;1792288;79;20126;-66
2021/03/29 01:38:03;;;;;;;;;;;;;;;6.49;77.46;100144.80;1791370;79;20139;-65
2021/03/29 01:40:31;;;;;;;;;;;;;;;6.47;77.46;100142.76;1776731;79;20134;-66
2021/03/29 01:42:58;;;;;;;;;;;;;;;6.46;77.55;100142.86;1763752;79;20142;-66
2021/03/29 01:45:26;;;;;;;;;;;;;;;6.42;77.64;100142.23;1776706;79;20237;-66
2021/03/29 01:47:53;;;;;;;;;;;;;;;6.37;77.81;100151.75;1791307;79;20155;-66
2021/03/29 01:50:24;;;;;;;;;;;;;;;6.33;77.98;100150.77;1764367;80;20251;-66
2021/03/29 01:52:51;;;;;;;;;;;;;;;6.35;78.15;100148.39;1783957;79;20135;-66
2021/03/29 01:55:19;;;;;;;;;;;;;;;6.39;78.26;100151.16;1784005;79;20410;-66
2021/03/29 01:57:46;;;;;;;;;;;;;;;6.39;78.36;100148.53;1780216;79;20130;-66
2021/03/29 02:00:27;;;;;;;;;;;;;;;6.41;78.27;100149.73;1784874;79;20242;-66
2021/03/29 02:02:55;;;;;;;;;;;;;;;6.40;78.40;100150.22;1783896;79;20138;-66
2021/03/29 02:05:23;;;;;;;;;;;;;;;6.41;78.26;100151.92;1784933;79;20237;-65
2021/03/29 02:07:51;;;;;;;;;;;;;;;6.40;78.30;100151.53;1787450;79;20155;-65
2021/03/29 02:10:23;;;;;;;;;;;;;;;6.41;78.13;100154.55;1761537;79;20505;-66
2021/03/29 02:12:51;;;;;;;;;;;;;;;6.40;78.00;100152.85;1791809;79;20123;-66
2021/03/29 02:15:26;;;;;;;;;;;;;;;6.38;77.95;100158.69;1800471;79;20139;-66
2021/03/29 02:17:59;;;;;;;;;;;;;;;6.35;78.08;100160.70;1772619;79;20144;-66
2021/03/29 02:20:30;;;;;;;;;;;;;;;6.30;78.30;100158.38;1788722;79;20226;-67
2021/03/29 02:22:59;;;;;;;;;;;;;;;6.30;78.37;100160.17;1783886;79;20143;-66
2021/03/29 02:25:28;;;;;;;;;;;;;;;6.29;78.48;100159.83;1763133;80;20123;-66
2021/03/29 02:27:55;;;;;;;;;;;;;;;6.28;78.60;100161.59;1789188;79;20595;-66
2021/03/29 02:30:25;;;;;;;;;;;;;;;6.27;78.68;100170.92;1762219;79;20198;-66
2021/03/29 02:32:54;;;;;;;;;;;;;;;6.25;78.84;100174.97;1750667;79;20239;-66
2021/03/29 02:35:22;;;;;;;;;;;;;;;6.25;78.89;100173.65;1788211;79;20449;-66
2021/03/29 02:37:52;;;;;;;;;;;;;;;6.30;78.89;100172.83;1785478;79;20230;-66
2021/03/29 02:40:20;;;;;;;;;;;;;;;6.32;79.05;100177.53;1780954;79;20142;-66
2021/03/29 02:42:50;;;;;;;;;;;;;;;6.34;79.18;100175.63;1788962;79;20147;-66
2021/03/29 02:45:18;;;;;;;;;;;;;;;6.36;79.01;100175.04;1791310;79;20234;-66
2021/03/29 02:47:46;;;;;;;;;;;;;;;6.37;79.07;100178.50;1755284;79;20426;-65
2021/03/29 02:50:17;;;;;;;;;;;;;;;6.34;79.03;100183.51;1776503;79;20147;-66
2021/03/29 02:52:46;;;;;;;;;;;;;;;6.30;79.00;100183.81;1785941;79;20150;-66
2021/03/29 02:55:15;;;;;;;;;;;;;;;6.25;79.27;100177.59;1799835;79;20170;-66
2021/03/29 02:57:46;;;;;;;;;;;;;;;6.22;79.50;100187.81;1782184;79;20159;-66
2021/03/29 03:00:18;;;;;;;;;;;;;;;6.21;79.59;100181.39;1783912;79;20150;-66
2021/03/29 03:02:47;;;;;;;;;;;;;;;6.18;79.69;100186.36;1794142;79;20426;-66
2021/03/29 03:05:18;;;;;;;;;;;;;;;6.15;79.78;100188.36;1781745;79;20147;-66
2021/03/29 03:07:45;;;;;;;;;;;;;;;6.11;79.94;100189.05;1788383;79;20166;-66
2021/03/29 03:10:15;;;;;;;;;;;;;;;6.10;80.19;100193.11;1784112;79;20415;-65
2021/03/29 03:12:43;;;;;;;;;;;;;;;6.08;80.31;100198.92;1761319;79;20163;-66
2021/03/29 03:15:18;;;;;;;;;;;;;;;6.07;80.57;100199.88;1764912;79;20195;-66
2021/03/29 03:17:46;;;;;;;;;;;;;;;6.06;80.73;100199.50;1772438;79;20226;-66
2021/03/29 03:20:16;;;;;;;;;;;;;;;6.11;80.77;100205.28;1789045;79;20130;-66
2021/03/29 03:22:59;;;;;;;;;;;;;;;6.16;80.87;100211.06;1793434;79;20160;-66
2021/03/29 03:25:35;;;;;;;;;;;;;;;6.17;80.76;100200.91;1797415;78;20228;-66
2021/03/29 03:28:05;;;;;;;;;;;;;;;6.16;81.09;100207.13;1812895;78;20192;-65
2021/03/29 03:30:33;;;;;;;;;;;;;;;6.17;81.02;100210.96;1789536;78;20245;-66
2021/03/29 03:33:02;;;;;;;;;;;;;;;6.16;80.92;100215.83;1797854;78;20413;-66
2021/03/29 03:35:30;;;;;;;;;;;;;;;6.14;80.80;100212.95;1809392;78;20160;-66
2021/03/29 03:38:03;;;;;;;;;;;;;;;6.09;80.98;100213.27;1812095;78;20125;-65
2021/03/29 03:40:30;;;;;;;;;;;;;;;6.07;81.17;100217.78;1806355;78;20145;-65
2021/03/29 03:43:02;;;;;;;;;;;;;;;6.06;81.44;100225.76;1820807;78;20161;-66
2021/03/29 03:45:50;;;;;;;;;;;;;;;6.01;81.67;100224.30;1808764;79;20120;-66
2021/03/29 03:48:18;;;;;;;;;;;;;;;5.98;81.75;100223.19;1802614;78;20136;-66
2021/03/29 03:50:47;;;;;;;;;;;;;;;5.99;81.79;100226.19;1821378;78;20165;-66
2021/03/29 03:53:15;;;;;;;;;;;;;;;6.02;81.90;100229.93;1822502;78;20409;-66
2021/03/29 03:55:44;;;;;;;;;;;;;;;6.02;82.15;100228.62;1802262;78;20540;-66
2021/03/29 03:58:12;;;;;;;;;;;;;;;6.03;82.33;100239.47;1805433;78;20132;-65
2021/03/29 04:00:40;;;;;;;;;;;;;;;6.03;82.24;100228.97;1803126;78;20133;-65
2021/03/29 04:03:08;;;;;;;;;;;;;;;6.05;82.22;100242.48;1815842;78;20420;-65
2021/03/29 04:05:36;;;;;;;;;;;;;;;6.04;82.18;100241.61;1816295;79;20149;-66
2021/03/29 04:08:06;;;;;;;;;;;;;;;6.00;81.95;100234.45;1822239;78;20578;-65
2021/03/29 04:10:39;;;;;;;;;;;;;;;5.97;82.24;100246.46;1826288;78;20543;-65
2021/03/29 04:13:07;;;;;;;;;;;;;;;5.94;82.53;100251.88;1820866;79;20156;-65
2021/03/29 04:15:34;;;;;;;;;;;;;;;5.92;82.70;100249.00;1806305;78;20133;-65
2021/03/29 04:18:03;;;;;;;;;;;;;;;5.91;82.66;100249.93;1804219;78;20235;-65
2021/03/29 04:20:33;;;;;;;;;;;;;;;5.91;82.65;100254.73;1816356;78;20160;-66
2021/03/29 04:23:01;;;;;;;;;;;;;;;5.93;82.59;100251.98;1812202;78;20125;-65
2021/03/29 04:25:28;;;;;;;;;;;;;;;5.96;82.44;100250.50;1826154;79;20140;-65
2021/03/29 04:27:56;;;;;;;;;;;;;;;6.00;82.21;100258.08;1806656;78;20145;-65
2021/03/29 04:30:25;;;;;;;;;;;;;;;6.03;82.26;100260.47;1816848;78;20236;-65
2021/03/29 04:32:53;;;;;;;;;;;;;;;6.07;82.07;100256.34;1808288;78;20125;-65
2021/03/29 04:35:22;;;;;;;;;;;;;;;6.08;81.96;100261.94;1821308;78;20400;-65
2021/03/29 04:37:53;;;;;;;;;;;;;;;6.12;81.74;100263.44;1822994;78;20149;-65
2021/03/29 04:40:22;;;;;;;;;;;;;;;6.16;81.34;100269.67;1797869;78;20231;-65
2021/03/29 04:42:51;;;;;;;;;;;;;;;6.16;81.04;100270.16;1802253;78;20136;-66
2021/03/29 04:45:18;;;;;;;;;;;;;;;6.16;80.80;100276.72;1778917;78;20150;-66
2021/03/29 04:47:46;;;;;;;;;;;;;;;6.14;80.40;100278.13;1797982;78;20457;-66
2021/03/29 04:50:16;;;;;;;;;;;;;;;6.12;80.27;100276.08;1813097;78;20224;-66
2021/03/29 04:52:43;;;;;;;;;;;;;;;6.10;80.25;100278.45;1803419;79;20152;-67
2021/03/29 04:55:13;;;;;;;;;;;;;;;6.07;80.22;100272.09;1817231;78;20136;-66
2021/03/29 04:57:41;;;;;;;;;;;;;;;6.07;80.17;100277.34;1816525;78;20156;-66
2021/03/29 05:00:09;;;;;;;;;;;;;;;6.10;80.41;100279.77;1794289;79;20156;-66
2021/03/29 05:02:37;;;;;;;;;;;;;;;6.15;80.43;100288.16;1788096;79;20196;-66
2021/03/29 05:05:06;;;;;;;;;;;;;;;6.16;80.35;100282.80;1815560;78;20121;-66
2021/03/29 05:07:34;;;;;;;;;;;;;;;6.19;80.35;100286.55;1792706;79;20141;-67
2021/03/29 05:10:03;;;;;;;;;;;;;;;6.21;80.10;100296.47;1826215;78;20240;-68
2021/03/29 05:12:30;;;;;;;;;;;;;;;6.18;79.91;100295.35;1818120;78;20133;-67
2021/03/29 05:14:58;;;;;;;;;;;;;;;6.16;79.87;100293.78;1794013;78;20141;-67
2021/03/29 05:17:25;;;;;;;;;;;;;;;6.15;79.90;100294.72;1817077;78;20183;-66
2021/03/29 05:19:53;;;;;;;;;;;;;;;6.13;79.88;100297.92;1811688;78;20409;-67
2021/03/29 05:22:20;;;;;;;;;;;;;;;6.13;79.95;100300.06;1803276;78;20416;-67
2021/03/29 05:24:48;;;;;;;;;;;;;;;6.16;79.95;100303.81;1826528;78;20125;-68
2021/03/29 05:27:15;;;;;;;;;;;;;;;6.17;79.89;100305.95;1826724;79;20157;-67
2021/03/29 05:29:46;;;;;;;;;;;;;;;6.20;79.72;100304.45;1823509;78;20144;-67
2021/03/29 05:32:16;;;;;;;;;;;;;;;6.25;79.53;100308.92;1810194;78;20125;-69
2021/03/29 05:34:44;;;;;;;;;;;;;;;6.32;79.42;100311.50;1821929;78;20121;-66
2021/03/29 05:37:13;;;;;;;;;;;;;;;6.38;78.94;100316.32;1795042;78;20195;-66
2021/03/29 05:39:40;;;;;;;;;;;;;;;6.39;78.58;100315.36;1802268;78;20144;-68
2021/03/29 05:42:08;;;;;;;;;;;;;;;6.40;78.40;100322.30;1807136;78;20133;-67
2021/03/29 05:44:37;;;;;;;;;;;;;;;6.41;78.05;100321.83;1814568;78;20180;-66
2021/03/29 05:47:05;;;;;;;;;;;;;;;6.41;77.97;100326.63;1816363;78;20408;-67
2021/03/29 05:49:33;;;;;;;;;;;;;;;6.46;77.83;100330.72;1817803;78;20303;-67
2021/03/29 05:52:02;;;;;;;;;;;;;;;6.48;77.69;100336.23;1815902;78;20125;-66
2021/03/29 05:54:30;;;;;;;;;;;;;;;6.51;77.37;100339.11;1803228;78;20177;-67
2021/03/29 05:56:58;;;;;;;;;;;;;;;6.51;77.11;100343.91;1815563;78;20121;-68
2021/03/29 05:59:33;;;;;;;;;;;;;;;6.49;76.99;100343.62;1795675;79;20153;-68
2021/03/29 06:01:56;;;;;;;;;;;;;;;6.50;77.13;100347.47;1816607;78;20160;-67
2021/03/29 06:04:44;;;;;;;;;;;;;;;6.53;76.90;100351.21;1805610;78;20141;-67
2021/03/29 06:07:22;;;;;;;;;;;;;;;6.54;76.76;100350.25;1826467;78;20137;-66
2021/03/29 06:09:52;;;;;;;;;;;;;;;6.59;76.48;100355.20;1815237;78;20177;-67
2021/03/29 06:12:21;;;;;;;;;;;;;;;6.64;76.52;100359.67;1797694;78;20228;-68
2021/03/29 06:14:59;;;;;;;;;;;;;;;6.68;76.29;100362.94;1797894;78;20145;-67
2021/03/29 06:17:28;;;;;;;;;;;;;;;6.67;76.20;100366.02;1816871;78;20144;-68
2021/03/29 06:20:00;;;;;;;;;;;;;;;6.66;76.24;100368.29;1789491;79;20399;-69
2021/03/29 06:22:38;;;;;;;;;;;;;;;6.70;76.04;100375.01;1826634;79;20157;-69
2021/03/29 06:25:16;;;;;;;;;;;;;;;6.71;76.06;100370.59;1814195;78;20149;-68
2021/03/29 06:27:54;;;;;;;;;;;;;;;6.75;75.64;100372.91;1795627;78;20162;-70
2021/03/29 06:30:31;;;;;;;;;;;;;;;6.76;75.40;100377.20;1767685;80;20431;-69
2021/03/29 06:33:07;;;;;;;;;;;;;;;6.74;75.26;100380.41;1777886;80;20158;-69
2021/03/29 06:35:42;;;;;;;;;;;;;;;6.70;75.33;100377.64;1764189;80;20425;-68
2021/03/29 06:38:18;;;;;;;;;;;;;;;6.69;75.38;100386.94;1788710;80;20151;-64
2021/03/29 06:40:53;;;;;;;;;;;;;;;6.68;75.32;100387.42;1773101;80;20234;-68
2021/03/29 06:43:34;;;;;;;;;;;;;;;6.68;75.48;100389.22;1739387;80;20147;-67
2021/03/29 06:46:24;;;;;;;;;;;;;;;6.74;75.61;100394.05;1790040;79;20193;-66
2021/03/29 06:48:54;;;;;;;;;;;;;;;6.79;75.51;100398.03;1781304;79;20390;-66
2021/03/29 06:51:32;;;;;;;;;;;;;;;6.87;75.36;100400.13;1788917;79;20520;-67
2021/03/29 06:54:11;;;;;;;;;;;;;;;6.92;75.05;100403.28;1790701;79;20189;-67
2021/03/29 06:56:41;;;;;;;;;;;;;;;6.91;74.89;100402.91;1782694;79;20157;-67
2021/03/29 06:59:14;;;;;;;;;;;;;;;6.91;74.68;100409.96;1783937;79;20265;-65
2021/03/29 07:01:54;;;;;;;;;;;;;;;6.93;74.70;100408.06;1796235;79;20155;-68
2021/03/29 07:04:24;;;;;;;;;;;;;;;6.97;74.63;100410.84;1785859;79;20147;-67
2021/03/29 07:06:52;;;;;;;;;;;;;;;7.02;74.58;100403.48;1783652;79;20465;-68
2021/03/29 07:09:20;;;;;;;;;;;;;;;7.05;74.44;100411.16;1781951;80;20143;-67
2021/03/29 07:11:48;;;;;;;;;;;;;;;7.08;74.27;100414.88;1781027;80;20163;-68
2021/03/29 07:14:18;;;;;;;;;;;;;;;7.10;74.12;100412.97;1794069;79;20224;-66
2021/03/29 07:16:48;;;;;;;;;;;;;;;7.13;74.04;100415.88;1779017;80;20144;-67
2021/03/29 07:19:16;;;;;;;;;;;;;;;7.18;73.88;100417.23;1779694;80;20311;-66
2021/03/29 07:21:45;;;;;;;;;;;;;;;7.26;73.60;100425.06;1793530;78;20510;-67
2021/03/29 07:24:14;;;;;;;;;;;;;;;7.31;73.42;100420.30;1781461;80;20156;-67
2021/03/29 07:26:47;;;;;;;;;;;;;;;7.39;73.04;100420.61;1757127;80;20141;-68
2021/03/29 07:29:27;;;;;;;;;;;;;;;7.45;72.74;100424.11;1799646;79;20492;-68
2021/03/29 07:31:56;;;;;;;;;;;;;;;7.53;72.47;100424.88;1782234;80;20234;-69
2021/03/29 07:34:47;;;;;;;;;;;;;;;7.58;72.17;100430.17;1788116;80;20131;-66
2021/03/29 07:37:40;;;;;;;;;;;;;;;7.63;71.87;100432.94;1798377;79;20117;-66
2021/03/29 07:40:12;;;;;;;;;;;;;;;7.67;71.39;100440.97;1772605;80;20195;-66
2021/03/29 07:42:40;;;;;;;;;;;;;;;7.67;71.07;100437.89;1782674;80;20191;-69
2021/03/29 07:45:16;;;;;;;;;;;;;;;7.67;71.04;100450.19;1785636;80;20786;-66
2021/03/29 07:47:52;;;;;;;;;;;;;;;7.68;70.92;100454.52;1784654;79;20411;-67
2021/03/29 07:50:27;;;;;;;;;;;;;;;7.63;70.93;100454.86;1776535;80;20131;-67
2021/03/29 07:53:03;;;;;;;;;;;;;;;7.63;70.73;100456.17;1786477;79;20242;-67
2021/03/29 07:55:44;;;;;;;;;;;;;;;7.62;70.78;100458.91;1793261;79;20142;-66
2021/03/29 07:58:22;;;;;;;;;;;;;;;7.61;70.99;100466.44;1786044;79;20234;-68
2021/03/29 08:01:05;;;;;;;;;;;;;;;7.58;71.13;100463.55;1793162;79;20241;-69
2021/03/29 08:03:39;;;;;;;;;;;;;;;7.61;71.11;100468.58;1784352;79;20162;-70
2021/03/29 08:06:28;;;;;;;;;;;;;;;7.68;71.28;100469.00;1783849;79;20532;-68
2021/03/29 08:08:56;;;;;;;;;;;;;;;7.73;71.16;100476.09;1783154;80;20168;-67
2021/03/29 08:11:25;;;;;;;;;;;;;;;7.80;70.97;100481.29;1771628;80;20195;-66
2021/03/29 08:13:56;;;;;;;;;;;;;;;7.83;70.60;100479.73;1799014;78;20137;-66
2021/03/29 08:16:28;;;;;;;;;;;;;;;7.83;70.53;100478.41;1820514;78;20235;-66
2021/03/29 08:19:17;;;;;;;;;;;;;;;7.89;70.35;100488.53;1801092;78;20231;-65
2021/03/29 08:21:59;;;;;;;;;;;;;;;7.94;70.05;100483.75;1775328;80;20461;-68
2021/03/29 08:24:46;;;;;;;;;;;;;;;8.02;69.53;100483.66;1776218;79;20177;-66
2021/03/29 08:27:20;;;;;;;;;;;;;;;8.09;69.08;100487.05;1818661;78;20216;-70
2021/03/29 08:29:49;;;;;;;;;;;;;;;8.13;68.79;100482.41;1815464;78;20155;-68
2021/03/29 08:32:19;;;;;;;;;;;;;;;8.19;68.58;100483.26;1797532;79;20199;-69
2021/03/29 08:35:07;;;;;;;;;;;;;;;8.31;68.24;100485.48;1809950;78;20148;-65
2021/03/29 08:37:42;;;;;;;;;;;;;;;8.42;68.01;100490.83;1822417;78;20244;-69
2021/03/29 08:40:13;;;;;;;;;;;;;;;8.60;67.61;100491.71;1801624;78;20208;-68
2021/03/29 08:42:43;;;;;;;;;;;;;;;8.74;66.86;100489.72;1795829;80;20212;-67
2021/03/29 08:45:13;;;;;;;;;;;;;;;8.84;66.19;100491.16;1779322;80;20203;-68
2021/03/29 08:47:42;;;;;;;;;;;;;;;8.90;65.78;100492.49;1777057;80;20136;-69
2021/03/29 08:50:16;;;;;;;;;;;;;;;8.97;65.37;100491.56;1790955;80;20155;-70
2021/03/29 08:52:49;;;;;;;;;;;;;;;9.05;65.01;100492.66;1793273;79;20222;-69
2021/03/29 08:55:22;;;;;;;;;;;;;;;9.17;64.40;100493.98;1760577;78;20508;-71
2021/03/29 08:57:51;;;;;;;;;;;;;;;9.21;64.09;100498.06;1805028;78;20125;-70
2021/03/29 09:00:28;;;;;;;;;;;;;;;9.30;63.92;100501.30;1817713;78;20156;-69
2021/03/29 09:02:56;;;;;;;;;;;;;;;9.43;63.18;100502.02;1805790;78;20144;-72
2021/03/29 09:05:24;;;;;;;;;;;;;;;9.56;62.41;100507.63;1823602;78;20183;-70
2021/03/29 09:07:52;;;;;;;;;;;;;;;9.60;62.17;100507.77;1786817;79;20141;-66
2021/03/29 09:10:32;;;;;;;;;;;;;;;9.68;62.09;100501.39;1825621;78;20121;-69
2021/03/29 09:13:05;;;;;;;;;;;;;;;9.77;62.07;100509.91;1772591;80;20135;-69
2021/03/29 09:15:41;;;;;;;;;;;;;;;9.91;61.42;100511.42;1772110;80;20415;-70
2021/03/29 09:18:11;;;;;;;;;;;;;;;10.02;60.73;100510.07;1780273;80;20140;-68
2021/03/29 09:20:49;;;;;;;;;;;;;;;10.13;60.41;100514.49;1791999;80;20123;-68
2021/03/29 09:23:22;;;;;;;;;;;;;;;10.27;60.04;100517.34;1784498;79;20329;-64
2021/03/29 09:25:54;;;;;;;;;;;;;;;10.44;59.33;100523.92;1787972;79;20162;-66
2021/03/29 09:28:33;;;;;;;;;;;;;;;10.59;58.65;100521.32;1789494;80;20119;-63
2021/03/29 09:30:56;;;;;;;;;;;;;;;10.75;57.96;100522.68;1747734;81;20228;-62
2021/03/29 09:33:24;;;;;;;;;;;;;;;10.97;57.11;100525.19;1786395;78;20137;-64
2021/03/29 09:35:53;;;;;;;;;;;;;;;11.25;56.44;100524.16;1787375;79;20193;-69
2021/03/29 09:38:35;;;;;;;;;;;;;;;11.67;55.35;100524.07;1770062;80;20155;-69
2021/03/29 09:41:16;;;;;;;;;;;;;;;12.14;54.13;100525.66;1813900;79;20197;-69
2021/03/29 09:43:44;;;;;;;;;;;;;;;12.62;52.77;100527.97;1806145;79;20155;-69
2021/03/29 09:46:12;;;;;;;;;;;;;;;13.13;51.31;100528.58;1776711;80;20140;-70
2021/03/29 09:48:40;;;;;;;;;;;;;;;13.55;50.52;100525.03;1803602;79;20139;-70
2021/03/29 09:51:19;;;;;;;;;;;;;;;13.92;49.08;100528.14;1778060;80;20194;-69
2021/03/29 09:53:46;;;;;;;;;;;;;;;14.17;48.28;100529.72;1775375;80;20147;-70
2021/03/29 09:56:26;;;;;;;;;;;;;;;14.64;47.38;100529.52;1814098;79;20417;-70
2021/03/29 09:58:54;;;;;;;;;;;;;;;15.40;45.29;100536.02;1812935;79;20132;-68
2021/03/29 10:01:23;;;;;;;;;;;;;;;16.02;43.32;100526.45;1775334;80;20123;-69
2021/03/29 10:03:55;;;;;;;;;;;;;;;16.28;42.13;100536.19;1775763;80;20138;-68
2021/03/29 10:06:31;;;;;;;;;;;;;;;16.54;41.63;100535.22;1805870;79;20138;-69
2021/03/29 10:09:02;;;;;;;;;;;;;;;16.83;40.54;100535.59;1813890;79;20166;-68
2021/03/29 10:11:45;;;;;;;;;;;;;;;17.30;40.13;100534.00;1811254;78;20157;-69
2021/03/29 10:14:16;;;;;;;;;;;;;;;18.04;38.92;100537.73;1802157;77;20123;-69
2021/03/29 10:16:47;;;;;;;;;;;;;;;18.80;37.59;100537.86;1776173;80;20159;-70
2021/03/29 10:19:19;;;;;;;;;;;;;;;19.09;36.33;100541.11;1775560;80;20230;-68
2021/03/29 10:22:04;;;;;;;;;;;;;;;18.98;36.13;100541.56;1808474;78;20236;-69
2021/03/29 10:24:33;;;;;;;;;;;;;;;18.79;36.12;100550.40;1813734;79;20149;-70
2021/03/29 10:27:04;;;;;;;;;;;;;;;18.51;35.97;100550.64;1810788;79;20466;-70
2021/03/29 10:29:40;;;;;;;;;;;;;;;18.27;36.50;100547.11;1777034;79;20158;-70
2021/03/29 10:32:10;;;;;;;;;;;;;;;18.08;36.76;100552.93;1775803;80;20155;-69
2021/03/29 10:34:40;;;;;;;;;;;;;;;17.84;37.14;100546.65;1768772;80;20250;-69
2021/03/29 10:37:25;;;;;;;;;;;;;;;17.59;36.94;100548.09;1805995;77;20442;-70
2021/03/29 10:39:53;;;;;;;;;;;;;;;17.32;38.00;100554.71;1776687;80;20124;-69
2021/03/29 10:42:22;;;;;;;;;;;;;;;17.19;38.20;100549.89;1805127;77;20422;-69
2021/03/29 10:44:51;;;;;;;;;;;;;;;17.17;38.34;100553.72;1777126;80;20143;-68
2021/03/29 10:47:19;;;;;;;;;;;;;;;17.20;38.49;100552.88;1764552;80;20230;-68
2021/03/29 10:49:47;;;;;;;;;;;;;;;17.31;38.10;100545.52;1759671;80;20313;-70
2021/03/29 10:52:16;;;;;;;;;;;;;;;17.40;38.01;100560.02;1813790;79;20193;-69
2021/03/29 10:54:46;;;;;;;;;;;;;;;17.50;38.12;100548.30;1805554;79;20163;-69
2021/03/29 10:57:13;;;;;;;;;;;;;;;17.63;37.47;100554.76;1778155;79;20143;-68
2021/03/29 10:59:41;;;;;;;;;;;;;;;17.66;37.49;100557.09;1812816;77;20433;-69
2021/03/29 11:02:09;;;;;;;;;;;;;;;17.79;37.40;100545.85;1777363;80;20147;-67
2021/03/29 11:04:37;;;;;;;;;;;;;;;17.79;36.71;100555.73;1769298;79;20223;-69
2021/03/29 11:07:05;;;;;;;;;;;;;;;17.80;36.59;100552.84;1776530;80;20324;-69
2021/03/29 11:09:35;;;;;;;;;;;;;;;17.74;36.88;100555.41;1808588;79;20178;-68
2021/03/29 11:12:04;;;;;;;;;;;;;;;17.74;36.89;100559.42;1777984;80;20123;-70
2021/03/29 11:14:31;;;;;;;;;;;;;;;17.81;36.67;100556.38;1798364;79;20482;-69
2021/03/29 11:17:01;;;;;;;;;;;;;;;17.89;36.33;100550.19;1775967;80;20419;-70
2021/03/29 11:19:29;;;;;;;;;;;;;;;17.79;36.99;100557.06;1813962;79;20141;-68
2021/03/29 11:21:56;;;;;;;;;;;;;;;17.84;36.78;100552.00;1811953;79;20248;-69
2021/03/29 11:24:24;;;;;;;;;;;;;;;17.73;37.21;100562.61;1761954;80;20155;-70
2021/03/29 11:26:51;;;;;;;;;;;;;;;17.41;36.90;100563.52;1769349;81;20154;-69
2021/03/29 11:29:19;;;;;;;;;;;;;;;17.09;37.95;100558.58;1743368;81;20224;-69
2021/03/29 11:31:47;;;;;;;;;;;;;;;17.10;38.05;100561.59;1769220;81;20137;-69
2021/03/29 11:34:15;;;;;;;;;;;;;;;17.16;38.07;100562.25;1772060;81;20251;-69
2021/03/29 11:36:43;;;;;;;;;;;;;;;17.13;37.81;100551.89;1769004;81;20500;-71
2021/03/29 11:39:11;;;;;;;;;;;;;;;16.96;38.30;100549.73;1737445;81;20146;-69
2021/03/29 11:41:40;;;;;;;;;;;;;;;16.82;38.43;100549.07;1773824;80;20155;-70
2021/03/29 11:44:08;;;;;;;;;;;;;;;16.72;38.85;100552.40;1774872;79;20181;-69
2021/03/29 11:46:36;;;;;;;;;;;;;;;16.62;38.87;100552.06;1813957;79;20240;-69
2021/03/29 11:49:04;;;;;;;;;;;;;;;16.50;38.99;100553.41;1808199;79;20131;-71
2021/03/29 11:51:33;;;;;;;;;;;;;;;16.41;39.36;100554.39;1776991;80;20136;-69
2021/03/29 11:54:01;;;;;;;;;;;;;;;16.44;39.26;100550.04;1811458;77;20134;-68
2021/03/29 11:56:29;;;;;;;;;;;;;;;16.46;39.54;100550.73;1776711;80;20151;-70
2021/03/29 11:58:58;;;;;;;;;;;;;;;16.56;39.46;100550.06;1805380;79;20121;-71
2021/03/29 12:01:37;;;;;;;;;;;;;;;16.61;39.62;100548.25;1811215;79;20138;-67
2021/03/29 12:04:02;;;;;;;;;;;;;;;16.76;39.24;100561.26;1806722;77;20396;-68
2021/03/29 12:06:44;;;;;;;;;;;;;;;16.78;38.80;100560.59;1807289;79;20417;-70
2021/03/29 12:14:28;;;;;;;;;;;;;;;16.08;40.15;100559.17;1777975;80;20175;-69
2021/03/29 12:16:57;;;;;;;;;;;;;;;16.11;40.45;100558.00;1770480;79;20173;-71
2021/03/29 12:19:25;;;;;;;;;;;;;;;16.22;40.19;100555.53;1769388;81;20424;-70
2021/03/29 12:21:58;;;;;;;;;;;;;;;16.25;39.80;100557.85;1768831;81;20141;-69
2021/03/29 12:24:30;;;;;;;;;;;;;;;16.12;40.13;100550.31;1770199;81;20236;-69
2021/03/29 12:27:02;;;;;;;;;;;;;;;15.85;40.25;100555.42;1738626;81;20150;-71
2021/03/29 12:29:38;;;;;;;;;;;;;;;15.45;41.08;100550.19;1746110;81;20141;-70
2021/03/29 12:32:17;;;;;;;;;;;;;;;15.30;41.80;100558.80;1769510;81;20125;-71
2021/03/29 12:34:50;;;;;;;;;;;;;;;15.39;41.71;100560.16;1745193;81;20165;-69
2021/03/29 12:37:19;;;;;;;;;;;;;;;15.43;41.62;100555.70;1805588;77;20507;-68
2021/03/29 12:40:10;;;;;;;;;;;;;;;15.55;41.66;100557.59;1813424;77;20267;-69
2021/03/29 12:42:23;;;;;;;;;;;;;;;15.67;41.53;100560.33;1791173;79;20184;-69
2021/03/29 12:44:51;;;;;;;;;;;;;;;15.80;41.27;100555.06;1800531;78;20244;-69
2021/03/29 12:47:25;;;;;;;;;;;;;;;15.92;40.86;100564.45;1775560;79;20127;-71
2021/03/29 12:49:55;;;;;;;;;;;;;;;15.92;40.74;100556.45;1799683;79;20237;-69
2021/03/29 12:52:23;;;;;;;;;;;;;;;15.95;40.59;100556.61;1777434;80;20147;-68
2021/03/29 12:54:52;;;;;;;;;;;;;;;15.88;40.82;100562.60;1813121;79;20153;-70
2021/03/29 12:57:20;;;;;;;;;;;;;;;15.90;40.76;100559.78;1808549;79;20236;-69
2021/03/29 12:59:48;;;;;;;;;;;;;;;15.86;40.73;100556.59;1784279;79;20181;-70
2021/03/29 13:02:17;;;;;;;;;;;;;;;15.89;40.65;100561.59;1810976;78;20418;-69
2021/03/29 13:04:45;;;;;;;;;;;;;;;15.90;40.88;100557.11;1767204;80;20494;-70
2021/03/29 13:07:27;;;;;;;;;;;;;;;15.90;40.35;100556.60;1800971;77;20127;-71